Time;durP1;ratioP1;P1;durP2;ratioP2;P2;SDS_P1;SDS_P2;PMS_P1;PMS_P2;Temp;Humidity;BMP_temperature;BMP_pressure;BME280_temperature;BME280_humidity;BME280_pressure;Samples;Min_cycle;Max_cycle;Signal;HPM_P1;HPM_P2
2023/05/24 00:02:25;;;;;;;15.48;3.17;;;;;;;;;;6281859;22;20345;-85
2023/05/24 00:04:52;;;;;;;15.60;2.88;;;;;;;;;;6281843;22;20015;-85
2023/05/24 00:07:18;;;;;;;10.27;2.80;;;;;;;;;;6281968;22;20051;-85
2023/05/24 00:09:44;;;;;;;13.90;3.38;;;;;;;;;;6281531;22;20110;-85
2023/05/24 00:12:11;;;;;;;14.05;3.03;;;;;;;;;;6281599;22;20011;-85
2023/05/24 00:14:37;;;;;;;15.70;3.00;;;;;;;;;;6281459;22;20072;-85
2023/05/24 00:17:03;;;;;;;15.85;3.30;;;;;;;;;;6281157;22;20050;-85
2023/05/24 00:19:29;;;;;;;16.27;3.70;;;;;;;;;;6281503;22;20019;-85
2023/05/24 00:21:55;;;;;;;13.20;3.47;;;;;;;;;;6281220;22;20019;-85
2023/05/24 00:24:21;;;;;;;17.15;3.22;;;;;;;;;;6281475;22;20467;-85
2023/05/24 00:26:48;;;;;;;12.75;3.33;;;;;;;;;;6281704;22;20019;-85
2023/05/24 00:29:14;;;;;;;13.02;4.00;;;;;;;;;;6282178;22;20019;-85
2023/05/24 00:31:40;;;;;;;18.50;3.70;;;;;;;;;;6307484;22;20015;-84
2023/05/24 00:34:06;;;;;;;15.77;3.58;;;;;;;;;;6308009;22;20015;-85
2023/05/24 00:36:32;;;;;;;20.10;3.30;;;;;;;;;;6282458;22;20110;-85
2023/05/24 00:38:59;;;;;;;15.35;4.40;;;;;;;;;;6280923;22;20019;-84
2023/05/24 00:41:25;;;;;;;15.27;3.22;;;;;;;;;;6281364;22;20337;-85
2023/05/24 00:43:51;;;;;;;15.57;3.42;;;;;;;;;;6281589;22;20384;-85
2023/05/24 00:46:19;;;;;;;11.35;3.13;;;;;;;;;;6307072;22;20026;-84
2023/05/24 00:48:45;;;;;;;18.88;4.10;;;;;;;;;;6307887;22;20011;-84
2023/05/24 00:51:12;;;;;;;14.27;3.47;;;;;;;;;;6306976;22;20073;-85
2023/05/24 00:53:39;;;;;;;19.20;4.10;;;;;;;;;;6281384;22;20090;-85
2023/05/24 00:56:06;;;;;;;14.25;3.60;;;;;;;;;;6306826;22;20019;-84
2023/05/24 00:58:32;;;;;;;17.83;4.68;;;;;;;;;;6281273;22;20026;-84
2023/05/24 01:00:59;;;;;;;16.73;3.78;;;;;;;;;;6280654;22;20460;-85
2023/05/24 01:03:29;;;;;;;11.27;3.28;;;;;;;;;;6281037;22;20019;-85
2023/05/24 01:05:56;;;;;;;17.52;4.00;;;;;;;;;;6280928;22;20065;-85
2023/05/24 01:08:22;;;;;;;18.33;4.10;;;;;;;;;;6306605;22;20011;-85
2023/05/24 01:10:53;;;;;;;21.02;3.70;;;;;;;;;;6307719;22;20019;-85
2023/05/24 01:13:44;;;;;;;22.73;4.43;;;;;;;;;;6282004;22;20015;-85
2023/05/24 01:16:16;;;;;;;15.70;3.45;;;;;;;;;;6295761;22;20152;-85
2023/05/24 01:18:46;;;;;;;11.85;3.92;;;;;;;;;;6306687;22;20468;-84
2023/05/24 01:21:15;;;;;;;15.85;5.28;;;;;;;;;;6280744;22;20459;-84
2023/05/24 01:23:49;;;;;;;15.23;3.58;;;;;;;;;;6280991;22;20026;-85
2023/05/24 01:26:20;;;;;;;16.75;4.25;;;;;;;;;;6281170;22;20025;-85
2023/05/24 01:28:47;;;;;;;12.13;4.18;;;;;;;;;;6306571;22;20015;-85
2023/05/24 01:31:15;;;;;;;17.30;4.60;;;;;;;;;;6280424;22;20021;-84
2023/05/24 01:33:44;;;;;;;20.00;5.30;;;;;;;;;;6280541;22;20015;-85
2023/05/24 01:36:10;;;;;;;14.52;4.03;;;;;;;;;;6306822;22;20326;-85
2023/05/24 01:38:37;;;;;;;21.52;4.65;;;;;;;;;;6307529;22;20015;-85
2023/05/24 01:41:15;;;;;;;15.30;4.45;;;;;;;;;;6280430;22;20342;-84
2023/05/24 01:43:48;;;;;;;19.33;5.20;;;;;;;;;;6281034;22;20015;-85
2023/05/24 01:46:17;;;;;;;19.83;4.95;;;;;;;;;;6281073;22;20019;-84
2023/05/24 01:48:46;;;;;;;17.30;4.55;;;;;;;;;;6306619;22;20098;-85
2023/05/24 01:51:15;;;;;;;21.02;4.60;;;;;;;;;;6280647;22;20342;-85
2023/05/24 01:53:45;;;;;;;19.92;4.93;;;;;;;;;;6280654;22;20026;-85
2023/05/24 01:56:11;;;;;;;23.95;4.65;;;;;;;;;;6280584;22;20016;-85
2023/05/24 01:58:38;;;;;;;16.10;4.13;;;;;;;;;;6280889;22;20015;-85
2023/05/24 02:01:05;;;;;;;23.17;5.15;;;;;;;;;;6281518;22;20019;-85
2023/05/24 02:03:31;;;;;;;19.17;4.45;;;;;;;;;;6280271;22;20372;-84
2023/05/24 02:05:57;;;;;;;18.13;4.43;;;;;;;;;;6280901;22;20321;-85
2023/05/24 02:08:23;;;;;;;17.52;5.28;;;;;;;;;;6280441;22;20076;-85
2023/05/24 02:10:49;;;;;;;24.25;5.63;;;;;;;;;;6280663;22;20442;-85
2023/05/24 02:13:16;;;;;;;23.42;5.30;;;;;;;;;;6281646;22;20098;-85
2023/05/24 02:15:43;;;;;;;18.95;4.65;;;;;;;;;;6280483;22;20011;-84
2023/05/24 02:18:10;;;;;;;26.00;5.57;;;;;;;;;;6307437;22;20094;-84
2023/05/24 02:20:36;;;;;;;23.48;4.70;;;;;;;;;;6306322;22;20019;-84
2023/05/24 02:23:03;;;;;;;17.75;4.25;;;;;;;;;;6306416;22;20015;-84
2023/05/24 02:25:30;;;;;;;25.15;5.05;;;;;;;;;;6280738;22;20018;-84
2023/05/24 02:27:56;;;;;;;21.52;5.13;;;;;;;;;;6306368;22;20453;-84
2023/05/24 02:30:23;;;;;;;16.30;5.65;;;;;;;;;;6306509;22;20034;-84
2023/05/24 02:32:49;;;;;;;22.88;5.32;;;;;;;;;;6280831;22;20016;-84
2023/05/24 02:35:15;;;;;;;22.85;5.63;;;;;;;;;;6280551;22;20011;-84
2023/05/24 02:37:41;;;;;;;22.58;5.47;;;;;;;;;;6280980;22;20051;-84
2023/05/24 02:40:07;;;;;;;20.17;5.07;;;;;;;;;;6306416;22;20072;-84
2023/05/24 02:42:33;;;;;;;20.23;4.15;;;;;;;;;;6281022;22;20098;-84
2023/05/24 02:44:59;;;;;;;20.52;5.53;;;;;;;;;;6281635;22;20123;-84
2023/05/24 02:47:25;;;;;;;23.98;5.72;;;;;;;;;;6308527;22;20022;-84
2023/05/24 02:49:52;;;;;;;18.63;5.18;;;;;;;;;;6283017;22;20023;-84
2023/05/24 02:52:22;;;;;;;19.25;5.75;;;;;;;;;;6308509;22;20015;-84
2023/05/24 02:54:51;;;;;;;18.27;5.00;;;;;;;;;;6282815;22;20046;-84
2023/05/24 02:57:17;;;;;;;24.33;5.75;;;;;;;;;;6282610;22;20022;-84
2023/05/24 02:59:43;;;;;;;19.38;5.47;;;;;;;;;;6283615;22;20321;-84
2023/05/24 03:02:12;;;;;;;23.77;5.80;;;;;;;;;;6281968;22;20022;-85
2023/05/24 03:04:38;;;;;;;19.02;5.22;;;;;;;;;;6282498;22;20365;-84
2023/05/24 03:07:04;;;;;;;23.73;5.25;;;;;;;;;;6282646;22;20103;-84
2023/05/24 03:09:30;;;;;;;24.73;5.40;;;;;;;;;;6282106;22;20012;-84
2023/05/24 03:11:57;;;;;;;22.52;5.78;;;;;;;;;;6282089;22;20441;-85
2023/05/24 03:14:23;;;;;;;27.65;6.28;;;;;;;;;;6283277;22;20057;-85
2023/05/24 03:16:50;;;;;;;21.40;5.40;;;;;;;;;;6308156;22;20018;-85
2023/05/24 03:19:16;;;;;;;18.50;4.53;;;;;;;;;;6307792;22;20453;-84
2023/05/24 03:21:42;;;;;;;18.30;5.10;;;;;;;;;;6308097;22;20022;-85
2023/05/24 03:24:08;;;;;;;19.92;5.07;;;;;;;;;;6283289;22;20112;-84
2023/05/24 03:26:34;;;;;;;22.27;5.50;;;;;;;;;;6281870;22;20015;-84
2023/05/24 03:29:00;;;;;;;18.45;5.25;;;;;;;;;;6281888;22;20019;-84
2023/05/24 03:31:26;;;;;;;19.80;4.88;;;;;;;;;;6282204;22;20536;-85
2023/05/24 03:33:52;;;;;;;21.80;4.40;;;;;;;;;;6308876;22;20299;-85
2023/05/24 03:36:20;;;;;;;19.98;5.13;;;;;;;;;;6307968;22;20022;-85
2023/05/24 03:38:46;;;;;;;25.35;6.03;;;;;;;;;;6307892;22;20015;-84
2023/05/24 03:41:12;;;;;;;24.90;6.18;;;;;;;;;;6283249;22;20023;-84
2023/05/24 03:43:38;;;;;;;16.63;4.70;;;;;;;;;;6282291;22;20011;-84
2023/05/24 03:46:04;;;;;;;18.92;5.25;;;;;;;;;;6308210;22;20020;-84
2023/05/24 03:48:30;;;;;;;19.05;5.18;;;;;;;;;;6282416;22;20015;-84
2023/05/24 03:50:56;;;;;;;21.02;5.63;;;;;;;;;;6282363;22;20106;-84
2023/05/24 03:53:22;;;;;;;20.88;5.22;;;;;;;;;;6282570;22;20022;-84
2023/05/24 03:55:48;;;;;;;22.73;6.18;;;;;;;;;;6282354;22;20145;-85
2023/05/24 03:58:14;;;;;;;20.40;5.05;;;;;;;;;;6281695;22;20476;-84
2023/05/24 04:00:40;;;;;;;18.60;4.90;;;;;;;;;;6281890;22;20457;-85
2023/05/24 04:03:07;;;;;;;20.20;5.38;;;;;;;;;;6282290;22;20027;-84
2023/05/24 04:05:33;;;;;;;23.10;5.72;;;;;;;;;;6307618;22;20473;-84
2023/05/24 04:08:00;;;;;;;21.42;4.60;;;;;;;;;;6281661;22;20346;-84
2023/05/24 04:10:26;;;;;;;21.80;6.00;;;;;;;;;;6282859;22;20015;-84
2023/05/24 04:12:52;;;;;;;18.15;4.53;;;;;;;;;;6308637;22;20011;-84
2023/05/24 04:15:18;;;;;;;19.50;4.85;;;;;;;;;;6307288;22;20061;-84
2023/05/24 04:17:45;;;;;;;16.35;4.63;;;;;;;;;;6281729;22;20026;-85
2023/05/24 04:20:12;;;;;;;20.98;5.22;;;;;;;;;;6307544;22;20019;-84
2023/05/24 04:22:38;;;;;;;17.50;4.40;;;;;;;;;;6281986;22;20028;-85
2023/05/24 04:25:07;;;;;;;16.90;4.07;;;;;;;;;;6281246;22;20019;-85
2023/05/24 04:27:35;;;;;;;17.83;5.07;;;;;;;;;;6281353;22;20015;-85
2023/05/24 04:30:02;;;;;;;15.82;4.80;;;;;;;;;;6281548;22;20015;-85
2023/05/24 04:32:29;;;;;;;18.00;4.68;;;;;;;;;;6307206;22;20041;-85
2023/05/24 04:34:55;;;;;;;16.10;5.15;;;;;;;;;;6307368;22;20069;-85
2023/05/24 04:37:21;;;;;;;18.00;4.80;;;;;;;;;;6281340;22;20026;-84
2023/05/24 04:39:47;;;;;;;19.63;5.47;;;;;;;;;;6281688;22;20022;-84
2023/05/24 04:42:13;;;;;;;18.67;5.15;;;;;;;;;;6307387;22;20338;-85
2023/05/24 04:44:40;;;;;;;21.60;5.07;;;;;;;;;;6308409;22;20019;-84
2023/05/24 04:47:06;;;;;;;18.20;4.60;;;;;;;;;;6281553;22;20379;-85
2023/05/24 04:49:32;;;;;;;13.57;4.07;;;;;;;;;;6281427;22;20023;-85
2023/05/24 04:51:58;;;;;;;18.23;4.20;;;;;;;;;;6307593;22;20073;-84
2023/05/24 04:54:24;;;;;;;28.17;6.45;;;;;;;;;;6281811;22;20055;-84
2023/05/24 04:56:53;;;;;;;21.10;5.20;;;;;;;;;;6282175;22;20022;-84
2023/05/24 04:59:19;;;;;;;21.58;4.70;;;;;;;;;;6282520;22;20023;-85
2023/05/24 05:01:45;;;;;;;21.27;4.72;;;;;;;;;;6280842;22;20019;-85
2023/05/24 05:04:11;;;;;;;15.68;4.97;;;;;;;;;;6282445;22;20107;-85
2023/05/24 05:06:39;;;;;;;21.15;4.88;;;;;;;;;;6282346;22;20015;-85
2023/05/24 05:09:08;;;;;;;20.23;4.45;;;;;;;;;;6306071;22;20023;-85
2023/05/24 05:11:34;;;;;;;15.20;4.30;;;;;;;;;;6282323;22;20317;-85
2023/05/24 05:14:01;;;;;;;18.90;4.47;;;;;;;;;;6280739;22;20026;-85
2023/05/24 05:16:27;;;;;;;18.05;3.85;;;;;;;;;;6306918;22;20022;-86
2023/05/24 05:18:53;;;;;;;17.58;3.67;;;;;;;;;;6281294;22;20022;-85
2023/05/24 05:21:19;;;;;;;21.85;4.55;;;;;;;;;;6306947;22;20068;-85
2023/05/24 05:23:45;;;;;;;18.65;4.97;;;;;;;;;;6281119;22;20459;-84
2023/05/24 05:26:11;;;;;;;16.10;4.25;;;;;;;;;;6306878;22;20073;-84
2023/05/24 05:28:37;;;;;;;18.65;4.28;;;;;;;;;;6281080;22;20015;-85
2023/05/24 05:31:03;;;;;;;16.20;4.10;;;;;;;;;;6280982;22;20028;-85
2023/05/24 05:33:33;;;;;;;21.73;4.40;;;;;;;;;;6281373;22;20019;-85
2023/05/24 05:35:59;;;;;;;18.27;3.55;;;;;;;;;;6306748;22;20019;-85
2023/05/24 05:38:25;;;;;;;13.40;4.07;;;;;;;;;;6307051;22;20011;-85
2023/05/24 05:40:51;;;;;;;17.98;4.35;;;;;;;;;;6306816;22;20015;-84
2023/05/24 05:43:17;;;;;;;19.15;3.83;;;;;;;;;;6281062;22;20098;-84
2023/05/24 05:45:43;;;;;;;18.42;4.18;;;;;;;;;;6282102;22;20015;-85
2023/05/24 05:48:09;;;;;;;15.88;3.20;;;;;;;;;;6307668;22;20034;-85
2023/05/24 05:50:35;;;;;;;13.95;3.40;;;;;;;;;;6280926;22;20015;-85
2023/05/24 05:53:02;;;;;;;18.55;3.70;;;;;;;;;;6280901;22;20019;-85
2023/05/24 05:55:28;;;;;;;12.90;3.65;;;;;;;;;;6281035;22;20022;-85
2023/05/24 05:57:54;;;;;;;17.00;3.67;;;;;;;;;;6280665;22;20022;-85
2023/05/24 06:00:22;;;;;;;13.48;2.78;;;;;;;;;;6281227;22;20015;-85
2023/05/24 06:02:48;;;;;;;20.33;4.18;;;;;;;;;;6306439;22;20012;-85
2023/05/24 06:05:14;;;;;;;16.00;3.75;;;;;;;;;;6280365;22;20019;-85
2023/05/24 06:07:40;;;;;;;14.10;3.00;;;;;;;;;;6306549;22;20026;-84
2023/05/24 06:10:07;;;;;;;17.63;3.00;;;;;;;;;;6280521;22;20042;-85
2023/05/24 06:12:33;;;;;;;11.77;2.72;;;;;;;;;;6306650;22;20090;-85
2023/05/24 06:14:59;;;;;;;11.35;2.97;;;;;;;;;;6280808;22;20015;-85
2023/05/24 06:17:26;;;;;;;13.52;2.40;;;;;;;;;;6306597;22;20021;-85
2023/05/24 06:19:53;;;;;;;11.73;2.60;;;;;;;;;;6307444;22;20012;-85
2023/05/24 06:22:22;;;;;;;14.00;3.30;;;;;;;;;;6310005;22;20015;-84
2023/05/24 06:24:49;;;;;;;15.68;3.10;;;;;;;;;;6309949;22;20488;-85
2023/05/24 06:27:15;;;;;;;17.40;3.28;;;;;;;;;;6284163;22;20027;-84
2023/05/24 06:29:41;;;;;;;16.40;3.35;;;;;;;;;;6310013;22;20086;-85
2023/05/24 06:32:07;;;;;;;15.10;3.10;;;;;;;;;;6309855;22;20084;-84
2023/05/24 06:34:33;;;;;;;15.50;2.67;;;;;;;;;;6309364;22;20069;-86
2023/05/24 06:36:59;;;;;;;15.85;2.90;;;;;;;;;;6285249;22;20011;-85
2023/05/24 06:39:25;;;;;;;13.20;3.20;;;;;;;;;;6284139;22;20453;-85
2023/05/24 06:41:52;;;;;;;16.05;3.60;;;;;;;;;;6310927;22;20090;-85
2023/05/24 06:44:18;;;;;;;14.60;3.00;;;;;;;;;;6285185;22;20015;-85
2023/05/24 06:46:47;;;;;;;12.95;3.25;;;;;;;;;;6309890;22;20019;-85
2023/05/24 06:49:13;;;;;;;12.80;2.88;;;;;;;;;;6285225;22;20055;-85
2023/05/24 06:51:39;;;;;;;10.20;2.67;;;;;;;;;;6284690;22;20301;-85
2023/05/24 06:54:05;;;;;;;13.05;3.30;;;;;;;;;;6284037;22;20015;-85
2023/05/24 06:56:31;;;;;;;16.48;2.92;;;;;;;;;;6285042;22;20016;-85
2023/05/24 06:58:59;;;;;;;19.55;3.88;;;;;;;;;;6284071;22;20015;-85
2023/05/24 07:01:26;;;;;;;13.43;2.92;;;;;;;;;;6283564;22;20058;-84
2023/05/24 07:03:52;;;;;;;12.02;2.90;;;;;;;;;;6284371;22;20023;-85
2023/05/24 07:06:18;;;;;;;14.07;2.75;;;;;;;;;;6284375;22;20022;-85
2023/05/24 07:08:44;;;;;;;13.68;2.47;;;;;;;;;;6309775;22;20041;-85
2023/05/24 07:11:10;;;;;;;16.92;3.35;;;;;;;;;;6309754;22;20015;-85
2023/05/24 07:13:36;;;;;;;11.35;2.88;;;;;;;;;;6284924;22;20011;-85
2023/05/24 07:16:02;;;;;;;12.98;2.58;;;;;;;;;;6284232;22;20433;-85
2023/05/24 07:18:29;;;;;;;15.05;3.40;;;;;;;;;;6309736;22;20011;-85
2023/05/24 07:20:56;;;;;;;15.32;2.80;;;;;;;;;;6283892;22;20089;-85
2023/05/24 07:23:22;;;;;;;15.35;2.92;;;;;;;;;;6284779;22;20050;-85
2023/05/24 07:25:48;;;;;;;13.95;2.67;;;;;;;;;;6284359;22;20328;-84
2023/05/24 07:28:16;;;;;;;13.57;2.90;;;;;;;;;;6309322;22;20046;-84
2023/05/24 07:30:43;;;;;;;13.40;3.47;;;;;;;;;;6284543;22;20460;-84
2023/05/24 07:33:09;;;;;;;13.43;3.05;;;;;;;;;;6281562;22;20019;-88
2023/05/24 07:35:35;;;;;;;11.95;3.08;;;;;;;;;;6282228;22;20019;-85
2023/05/24 07:38:01;;;;;;;9.60;2.10;;;;;;;;;;6282222;22;20084;-85
2023/05/24 07:40:27;;;;;;;13.07;3.00;;;;;;;;;;6307644;22;20103;-84
2023/05/24 07:42:54;;;;;;;14.75;3.00;;;;;;;;;;6281948;22;20015;-84
2023/05/24 07:45:20;;;;;;;10.98;2.55;;;;;;;;;;6307526;22;20019;-85
2023/05/24 07:47:46;;;;;;;11.40;2.53;;;;;;;;;;6281714;22;20019;-84
2023/05/24 07:50:12;;;;;;;13.55;2.55;;;;;;;;;;6281756;22;20026;-84
2023/05/24 07:52:38;;;;;;;11.27;2.70;;;;;;;;;;6282159;22;20015;-85
2023/05/24 07:55:05;;;;;;;11.80;3.03;;;;;;;;;;6281741;22;20376;-87
2023/05/24 07:57:32;;;;;;;10.02;2.35;;;;;;;;;;6281285;22;20015;-84
2023/05/24 07:59:58;;;;;;;10.98;2.28;;;;;;;;;;6307340;22;20022;-85
2023/05/24 08:02:25;;;;;;;8.18;1.92;;;;;;;;;;6281823;22;20015;-85
2023/05/24 08:04:51;;;;;;;13.57;2.45;;;;;;;;;;6281461;22;20102;-84
2023/05/24 08:07:21;;;;;;;9.50;2.25;;;;;;;;;;6281517;22;20023;-86
2023/05/24 08:09:47;;;;;;;9.90;1.65;;;;;;;;;;6281801;22;20022;-85
2023/05/24 08:12:13;;;;;;;11.77;1.92;;;;;;;;;;6281789;22;20026;-86
2023/05/24 08:14:39;;;;;;;10.95;2.28;;;;;;;;;;6308540;22;20038;-86
2023/05/24 08:17:05;;;;;;;6.70;1.60;;;;;;;;;;6282826;22;20019;-85
2023/05/24 08:19:34;;;;;;;13.10;2.22;;;;;;;;;;6307999;22;20019;-85
2023/05/24 08:22:03;;;;;;;7.68;1.40;;;;;;;;;;6282893;22;20019;-86
2023/05/24 08:24:30;;;;;;;9.02;1.58;;;;;;;;;;6307552;22;20015;-85
2023/05/24 08:26:56;;;;;;;7.18;1.80;;;;;;;;;;6281676;22;20475;-85
2023/05/24 08:29:23;;;;;;;6.88;1.23;;;;;;;;;;6282625;22;20019;-85
2023/05/24 08:31:49;;;;;;;8.55;1.52;;;;;;;;;;6281384;22;20042;-87
2023/05/24 08:34:15;;;;;;;8.48;1.38;;;;;;;;;;6282524;22;20042;-84
2023/05/24 08:36:42;;;;;;;7.55;1.50;;;;;;;;;;6281745;22;20019;-85
2023/05/24 08:39:09;;;;;;;8.45;1.02;;;;;;;;;;6281914;22;20038;-84
2023/05/24 08:41:38;;;;;;;5.75;1.38;;;;;;;;;;6281943;22;20019;-84
2023/05/24 08:44:07;;;;;;;11.52;2.28;;;;;;;;;;6307043;22;20019;-87
2023/05/24 08:46:37;;;;;;;7.13;1.42;;;;;;;;;;6282164;22;20011;-87
2023/05/24 08:49:03;;;;;;;8.30;1.40;;;;;;;;;;6281350;22;20026;-86
2023/05/24 08:51:30;;;;;;;7.45;1.25;;;;;;;;;;6281207;22;20516;-87
2023/05/24 08:54:00;;;;;;;6.82;1.33;;;;;;;;;;6281619;22;20015;-84
2023/05/24 08:56:27;;;;;;;6.15;1.05;;;;;;;;;;6281259;22;20019;-85
2023/05/24 08:58:54;;;;;;;7.25;1.23;;;;;;;;;;6307109;22;20094;-81
2023/05/24 09:01:20;;;;;;;6.97;1.65;;;;;;;;;;6306944;22;20015;-83
2023/05/24 09:03:47;;;;;;;9.13;1.48;;;;;;;;;;6307049;22;20017;-84
2023/05/24 09:06:15;;;;;;;13.13;1.58;;;;;;;;;;6307183;22;20015;-83
2023/05/24 09:08:44;;;;;;;8.23;1.60;;;;;;;;;;6306817;22;20027;-83
2023/05/24 09:11:10;;;;;;;13.32;1.85;;;;;;;;;;6281070;22;20015;-84
2023/05/24 09:13:39;;;;;;;9.15;2.10;;;;;;;;;;6281566;22;20015;-85
2023/05/24 09:16:05;;;;;;;4.70;1.27;;;;;;;;;;6281031;22;20011;-84
2023/05/24 09:18:31;;;;;;;10.90;1.88;;;;;;;;;;6282237;22;20097;-86
2023/05/24 09:20:57;;;;;;;11.60;1.88;;;;;;;;;;6280310;22;20051;-83
2023/05/24 09:23:25;;;;;;;6.90;1.13;;;;;;;;;;6280319;22;20160;-83
2023/05/24 09:25:51;;;;;;;8.60;1.63;;;;;;;;;;6306537;22;20337;-83
2023/05/24 09:28:18;;;;;;;9.15;2.08;;;;;;;;;;6281867;22;20023;-84
2023/05/24 09:30:45;;;;;;;8.50;1.75;;;;;;;;;;6281054;22;20060;-84
2023/05/24 09:33:12;;;;;;;10.70;1.75;;;;;;;;;;6280841;22;20015;-86
2023/05/24 09:35:42;;;;;;;10.15;1.92;;;;;;;;;;6280624;22;20019;-86
2023/05/24 09:38:17;;;;;;;7.97;1.90;;;;;;;;;;6307893;22;20405;-86
2023/05/24 09:40:42;;;;;;;;;;;;;;;;;;6282731;22;20038;-85
2023/05/24 09:43:09;;;;;;;6.40;1.30;;;;;;;;;;6306919;22;19915;-86
2023/05/24 09:45:41;;;;;;;6.03;1.90;;;;;;;;;;6281941;22;20012;-86
2023/05/24 09:48:11;;;;;;;11.20;1.42;;;;;;;;;;6307082;22;20061;-86
2023/05/24 09:50:37;;;;;;;7.07;1.73;;;;;;;;;;6306761;22;20022;-86
2023/05/24 09:53:03;;;;;;;9.30;1.55;;;;;;;;;;6306444;22;20070;-85
2023/05/24 09:55:29;;;;;;;8.55;1.48;;;;;;;;;;6280536;22;20015;-85
2023/05/24 09:58:11;;;;;;;10.30;1.80;;;;;;;;;;6281315;22;20479;-84
2023/05/24 10:00:40;;;;;;;7.63;1.83;;;;;;;;;;6281994;22;20077;-85
2023/05/24 10:03:09;;;;;;;9.23;1.65;;;;;;;;;;6280865;22;20019;-83
2023/05/24 10:05:36;;;;;;;6.40;1.30;;;;;;;;;;6306599;22;20023;-84
2023/05/24 10:08:03;;;;;;;10.18;1.60;;;;;;;;;;6280596;22;20030;-84
2023/05/24 10:10:30;;;;;;;9.88;1.75;;;;;;;;;;6307671;22;20015;-85
2023/05/24 10:12:57;;;;;;;5.97;1.63;;;;;;;;;;6307081;22;20015;-85
2023/05/24 10:15:24;;;;;;;7.72;2.05;;;;;;;;;;6281190;22;20022;-84
2023/05/24 10:17:53;;;;;;;7.30;1.63;;;;;;;;;;6282164;22;20015;-84
2023/05/24 10:20:20;;;;;;;7.20;1.33;;;;;;;;;;6280863;22;20019;-84
2023/05/24 10:22:47;;;;;;;3.78;0.93;;;;;;;;;;6280899;22;20437;-84
2023/05/24 10:25:15;;;;;;;8.43;1.30;;;;;;;;;;6280815;22;20057;-84
2023/05/24 10:27:43;;;;;;;4.13;0.90;;;;;;;;;;6280855;22;20019;-84
2023/05/24 10:30:09;;;;;;;2.63;0.75;;;;;;;;;;6306961;22;20094;-84
2023/05/24 10:32:37;;;;;;;4.05;0.98;;;;;;;;;;6280781;22;20019;-84
2023/05/24 10:35:05;;;;;;;4.47;0.98;;;;;;;;;;6280649;22;20015;-84
2023/05/24 10:37:32;;;;;;;3.33;1.10;;;;;;;;;;6280809;22;20019;-84
2023/05/24 10:39:59;;;;;;;5.20;1.10;;;;;;;;;;6306533;22;20015;-84
2023/05/24 10:42:26;;;;;;;2.90;0.68;;;;;;;;;;6280698;22;20102;-84
2023/05/24 10:44:52;;;;;;;6.40;1.25;;;;;;;;;;6280784;22;20495;-84
2023/05/24 10:47:20;;;;;;;4.65;1.05;;;;;;;;;;6280722;22;20453;-84
2023/05/24 10:49:51;;;;;;;3.00;0.90;;;;;;;;;;6281707;22;20019;-85
2023/05/24 10:52:17;;;;;;;4.60;1.02;;;;;;;;;;6281131;22;20015;-84
2023/05/24 10:55:06;;;;;;;5.82;1.40;;;;;;;;;;6280558;22;20121;-84
2023/05/24 10:57:33;;;;;;;5.57;1.33;;;;;;;;;;6306433;22;20026;-84
2023/05/24 11:00:18;;;;;;;4.75;0.90;;;;;;;;;;6307417;22;20092;-84
2023/05/24 11:02:44;;;;;;;4.22;0.82;;;;;;;;;;6307322;22;20325;-84
2023/05/24 11:05:11;;;;;;;5.43;1.00;;;;;;;;;;6281736;22;20015;-84
2023/05/24 11:07:43;;;;;;;3.38;0.93;;;;;;;;;;6281466;22;20019;-84
2023/05/24 11:10:16;;;;;;;4.70;0.82;;;;;;;;;;6282957;22;20058;-84
2023/05/24 11:12:43;;;;;;;3.70;0.70;;;;;;;;;;6308318;22;20022;-84
2023/05/24 11:15:10;;;;;;;5.78;0.80;;;;;;;;;;6283400;22;20378;-85
2023/05/24 11:17:55;;;;;;;6.80;1.38;;;;;;;;;;6308217;22;20060;-86
2023/05/24 11:20:21;;;;;;;3.15;0.88;;;;;;;;;;6308298;22;20011;-85
2023/05/24 11:22:47;;;;;;;7.70;0.88;;;;;;;;;;6282659;22;20468;-85
2023/05/24 11:25:13;;;;;;;5.38;0.80;;;;;;;;;;6282740;22;20020;-86
2023/05/24 11:27:44;;;;;;;3.63;0.75;;;;;;;;;;6282000;22;20016;-86
2023/05/24 11:30:11;;;;;;;4.57;0.88;;;;;;;;;;6283374;22;20065;-84
2023/05/24 11:32:41;;;;;;;5.10;1.20;;;;;;;;;;6283529;22;20102;-85
2023/05/24 11:35:10;;;;;;;4.72;1.20;;;;;;;;;;6283188;22;20043;-85
2023/05/24 11:37:40;;;;;;;6.10;1.13;;;;;;;;;;6308022;22;20015;-85
2023/05/24 11:40:09;;;;;;;5.85;1.02;;;;;;;;;;6282629;22;20441;-85
2023/05/24 11:42:38;;;;;;;11.18;1.50;;;;;;;;;;6307675;22;20090;-84
2023/05/24 11:45:05;;;;;;;6.65;1.13;;;;;;;;;;6308008;22;20353;-85
2023/05/24 11:47:35;;;;;;;7.45;1.10;;;;;;;;;;6282465;22;20026;-86
2023/05/24 11:50:02;;;;;;;7.35;1.23;;;;;;;;;;6282149;22;20015;-85
2023/05/24 11:52:28;;;;;;;6.97;1.20;;;;;;;;;;6282405;22;20076;-85
2023/05/24 11:54:54;;;;;;;5.38;0.90;;;;;;;;;;6307839;22;20106;-86
2023/05/24 11:57:25;;;;;;;6.65;1.17;;;;;;;;;;6282064;22;20015;-85
2023/05/24 11:59:52;;;;;;;6.43;0.98;;;;;;;;;;6281770;22;20021;-84
2023/05/24 12:02:18;;;;;;;3.42;0.88;;;;;;;;;;6282293;22;20019;-85
2023/05/24 12:04:45;;;;;;;8.90;1.20;;;;;;;;;;6281958;22;20020;-84
2023/05/24 12:07:11;;;;;;;5.53;0.90;;;;;;;;;;6307828;22;20019;-83
2023/05/24 12:09:38;;;;;;;4.05;0.75;;;;;;;;;;6281699;22;20026;-84
2023/05/24 12:12:06;;;;;;;5.18;0.90;;;;;;;;;;6282102;22;20030;-83
2023/05/24 12:14:35;;;;;;;3.00;0.82;;;;;;;;;;6283236;22;20015;-86
2023/05/24 12:17:01;;;;;;;6.00;1.00;;;;;;;;;;6307349;22;20019;-85
2023/05/24 12:19:33;;;;;;;7.65;0.70;;;;;;;;;;6308491;22;20011;-85
2023/05/24 12:22:00;;;;;;;2.97;0.68;;;;;;;;;;6282901;22;20326;-85
2023/05/24 12:24:26;;;;;;;3.33;0.70;;;;;;;;;;6307224;22;20015;-85
2023/05/24 12:26:57;;;;;;;3.03;0.60;;;;;;;;;;6307149;22;20037;-84
2023/05/24 12:29:23;;;;;;;3.92;1.30;;;;;;;;;;6307975;22;20333;-84
2023/05/24 12:31:50;;;;;;;5.22;1.08;;;;;;;;;;6282683;22;20023;-85
2023/05/24 12:34:18;;;;;;;4.57;0.77;;;;;;;;;;6307507;22;20015;-85
2023/05/24 12:36:45;;;;;;;5.70;0.95;;;;;;;;;;6307844;22;20344;-85
2023/05/24 12:39:29;;;;;;;5.72;1.50;;;;;;;;;;6281071;22;20015;-85
2023/05/24 12:41:57;;;;;;;7.78;1.75;;;;;;;;;;6282751;22;20021;-85
2023/05/24 12:44:31;;;;;;;5.30;0.80;;;;;;;;;;6307793;22;20015;-84
2023/05/24 12:46:57;;;;;;;8.95;1.45;;;;;;;;;;6307797;22;20095;-85
2023/05/24 12:49:24;;;;;;;9.55;1.98;;;;;;;;;;6307338;22;20038;-85
2023/05/24 12:51:50;;;;;;;9.50;1.23;;;;;;;;;;6281491;22;20019;-85
2023/05/24 12:54:22;;;;;;;4.82;1.10;;;;;;;;;;6308233;22;20011;-85
2023/05/24 12:56:49;;;;;;;7.45;1.38;;;;;;;;;;6307264;22;20019;-84
2023/05/24 12:59:15;;;;;;;6.78;1.10;;;;;;;;;;6282535;22;20011;-85
2023/05/24 13:01:41;;;;;;;4.82;1.08;;;;;;;;;;6307138;22;20022;-84
2023/05/24 13:04:09;;;;;;;5.07;0.90;;;;;;;;;;6281447;22;20057;-84
2023/05/24 13:06:36;;;;;;;6.95;1.50;;;;;;;;;;6281459;22;20044;-85
2023/05/24 13:09:03;;;;;;;6.05;1.30;;;;;;;;;;6281731;22;20026;-84
2023/05/24 13:11:30;;;;;;;5.30;1.52;;;;;;;;;;6281293;22;20103;-85
2023/05/24 13:13:58;;;;;;;8.15;1.48;;;;;;;;;;6281697;22;20019;-84
2023/05/24 13:16:25;;;;;;;6.68;1.38;;;;;;;;;;6281231;22;20041;-85
2023/05/24 13:18:51;;;;;;;5.97;1.33;;;;;;;;;;6281253;22;20069;-85
2023/05/24 13:21:18;;;;;;;5.07;0.88;;;;;;;;;;6280725;22;20051;-86
2023/05/24 13:23:44;;;;;;;5.75;0.95;;;;;;;;;;6306601;22;20026;-86
2023/05/24 13:26:10;;;;;;;5.40;0.93;;;;;;;;;;6280853;22;20453;-86
2023/05/24 13:28:36;;;;;;;4.25;1.02;;;;;;;;;;6281803;22;20022;-85
2023/05/24 13:31:02;;;;;;;4.65;1.13;;;;;;;;;;6281571;22;20021;-86
2023/05/24 13:33:28;;;;;;;7.22;1.27;;;;;;;;;;6280480;22;20021;-86
2023/05/24 13:35:55;;;;;;;6.40;1.73;;;;;;;;;;6280862;22;20441;-85
2023/05/24 13:38:22;;;;;;;5.00;1.40;;;;;;;;;;6281206;22;20015;-86
2023/05/24 13:40:48;;;;;;;6.47;1.40;;;;;;;;;;6280471;22;20445;-85
2023/05/24 13:43:15;;;;;;;9.95;1.70;;;;;;;;;;6306947;22;20019;-86
2023/05/24 13:45:41;;;;;;;6.22;1.50;;;;;;;;;;6280860;22;20129;-85
2023/05/24 13:48:07;;;;;;;8.20;1.83;;;;;;;;;;6280839;22;20019;-85
2023/05/24 13:50:34;;;;;;;8.15;1.42;;;;;;;;;;6307005;22;20016;-85
2023/05/24 13:53:03;;;;;;;10.52;1.38;;;;;;;;;;6281056;22;20068;-85
2023/05/24 13:55:31;;;;;;;9.60;1.20;;;;;;;;;;6307521;22;20050;-85
2023/05/24 13:57:57;;;;;;;6.60;1.20;;;;;;;;;;6280969;22;20460;-85
2023/05/24 14:00:24;;;;;;;7.60;1.35;;;;;;;;;;6281853;22;20015;-85
2023/05/24 14:02:52;;;;;;;6.22;1.23;;;;;;;;;;6280797;22;20098;-85
2023/05/24 14:05:18;;;;;;;7.95;1.33;;;;;;;;;;6281964;22;20011;-85
2023/05/24 14:07:45;;;;;;;8.52;1.60;;;;;;;;;;6306675;22;20023;-85
2023/05/24 14:10:11;;;;;;;7.50;1.67;;;;;;;;;;6280446;22;20393;-85
2023/05/24 14:12:37;;;;;;;11.23;1.75;;;;;;;;;;6306384;22;20338;-86
2023/05/24 14:15:05;;;;;;;12.45;1.83;;;;;;;;;;6307632;22;20353;-85
2023/05/24 14:17:31;;;;;;;10.60;1.70;;;;;;;;;;6306624;22;20068;-86
2023/05/24 14:19:57;;;;;;;4.80;1.08;;;;;;;;;;6281768;22;20444;-85
2023/05/24 14:22:25;;;;;;;6.43;1.52;;;;;;;;;;6280773;22;20061;-85
2023/05/24 14:24:51;;;;;;;6.07;1.52;;;;;;;;;;6280779;22;20011;-85
2023/05/24 14:27:17;;;;;;;8.13;1.50;;;;;;;;;;6280767;22;20055;-85
2023/05/24 14:29:44;;;;;;;7.63;1.30;;;;;;;;;;6280775;22;20029;-86
2023/05/24 14:32:10;;;;;;;5.80;1.17;;;;;;;;;;6281290;22;20026;-85
2023/05/24 14:34:36;;;;;;;6.82;1.42;;;;;;;;;;6306473;22;20015;-85
2023/05/24 14:37:03;;;;;;;9.27;1.50;;;;;;;;;;6280668;22;20057;-84